Time;durP1;ratioP1;P1;durP2;ratioP2;P2;SDS_P1;SDS_P2;PMS_P1;PMS_P2;Temp;Humidity;BMP_temperature;BMP_pressure;BME280_temperature;BME280_humidity;BME280_pressure;Samples;Min_cycle;Max_cycle;Signal;HPM_P1;HPM_P2
2021/08/28 12:54:37;;;;;;;1.02;0.60;;;;;;;;;;4894093;29;20055;-64
2021/08/28 12:57:08;;;;;;;0.57;0.57;;;;;;;;;;4893066;29;20053;-65
2021/08/28 12:59:50;;;;;;;0.60;0.60;;;;;;;;;;4895816;29;20053;-66
2021/08/28 13:02:25;;;;;;;0.50;0.50;;;;;;;;;;4891919;29;20424;-65
2021/08/28 13:04:52;;;;;;;0.50;0.50;;;;;;;;;;4892683;29;20073;-65
2021/08/28 13:07:28;;;;;;;0.50;0.45;;;;;;;;;;4892924;29;20084;-64
2021/08/28 13:09:56;;;;;;;0.45;0.45;;;;;;;;;;4894629;29;20543;-65
2021/08/28 13:12:55;;;;;;;0.68;0.47;;;;;;;;;;4895397;29;20056;-65
2021/08/28 13:15:24;;;;;;;0.50;0.30;;;;;;;;;;4894675;29;20552;-65
2021/08/28 13:18:02;;;;;;;0.50;0.50;;;;;;;;;;4895441;29;20053;-65
2021/08/28 13:20:30;;;;;;;0.43;0.40;;;;;;;;;;4894825;29;20056;-65
2021/08/28 13:23:03;;;;;;;0.57;0.30;;;;;;;;;;4894252;29;20088;-65
2021/08/28 13:25:36;;;;;;;0.85;0.30;;;;;;;;;;4894624;29;20048;-65
2021/08/28 13:28:18;;;;;;;0.40;0.40;;;;;;;;;;4894760;29;20112;-65
2021/08/28 13:30:47;;;;;;;1.17;0.38;;;;;;;;;;4895091;29;20127;-66
2021/08/28 13:33:31;;;;;;;0.30;0.30;;;;;;;;;;4893678;29;20070;-64
2021/08/28 13:36:02;;;;;;;0.85;0.50;;;;;;;;;;4894294;29;20089;-65
2021/08/28 13:38:29;;;;;;;0.40;0.40;;;;;;;;;;4894438;29;20132;-65
2021/08/28 13:40:58;;;;;;;1.85;0.43;;;;;;;;;;4894456;29;20131;-65
2021/08/28 13:43:26;;;;;;;2.28;0.65;;;;;;;;;;4894312;29;20060;-67
2021/08/28 13:45:53;;;;;;;1.38;0.77;;;;;;;;;;4893951;29;20056;-66
2021/08/28 13:48:20;;;;;;;0.52;0.40;;;;;;;;;;4893988;29;20168;-65
2021/08/28 13:50:47;;;;;;;0.30;0.30;;;;;;;;;;4894279;29;20503;-66
2021/08/28 13:53:14;;;;;;;0.52;0.43;;;;;;;;;;4893935;29;20531;-66
2021/08/28 13:55:42;;;;;;;1.40;0.40;;;;;;;;;;4895542;29;20052;-66
2021/08/28 13:58:09;;;;;;;0.60;0.50;;;;;;;;;;4894272;29;20048;-67
2021/08/28 14:00:37;;;;;;;0.60;0.50;;;;;;;;;;4892766;29;20083;-66
2021/08/28 14:03:04;;;;;;;0.32;0.32;;;;;;;;;;4891499;29;20581;-65
2021/08/28 14:05:31;;;;;;;1.27;0.57;;;;;;;;;;4891536;29;20056;-67
2021/08/28 14:07:58;;;;;;;0.60;0.50;;;;;;;;;;4893273;29;20534;-66
2021/08/28 14:10:25;;;;;;;0.63;0.60;;;;;;;;;;4892986;29;20139;-65
2021/08/28 14:12:51;;;;;;;1.13;0.63;;;;;;;;;;4893824;29;20670;-65
2021/08/28 14:15:18;;;;;;;0.73;0.70;;;;;;;;;;4893413;29;20063;-66
2021/08/28 14:17:46;;;;;;;1.67;0.63;;;;;;;;;;4891811;29;20061;-67
2021/08/28 14:20:20;;;;;;;0.80;0.60;;;;;;;;;;4892740;29;20056;-66
2021/08/28 14:22:47;;;;;;;0.68;0.57;;;;;;;;;;4893446;29;20293;-66
2021/08/28 14:25:15;;;;;;;1.65;0.60;;;;;;;;;;4893250;29;20108;-65
2021/08/28 14:27:42;;;;;;;0.70;0.43;;;;;;;;;;4892258;29;20108;-65
2021/08/28 14:30:10;;;;;;;0.95;0.75;;;;;;;;;;4893471;29;20500;-65
2021/08/28 14:32:36;;;;;;;0.93;0.90;;;;;;;;;;4890026;29;20053;-64
2021/08/28 14:35:04;;;;;;;1.00;0.70;;;;;;;;;;4893767;29;20475;-65
2021/08/28 14:37:31;;;;;;;0.60;0.52;;;;;;;;;;4893308;29;20056;-69
2021/08/28 14:39:57;;;;;;;1.10;0.85;;;;;;;;;;4889813;29;20571;-69
2021/08/28 14:42:24;;;;;;;0.60;0.60;;;;;;;;;;4891944;29;20060;-70
2021/08/28 14:44:51;;;;;;;1.20;0.70;;;;;;;;;;4892844;29;20052;-69
2021/08/28 14:47:17;;;;;;;1.10;1.00;;;;;;;;;;4893523;29;20107;-70
2021/08/28 14:49:44;;;;;;;0.80;0.80;;;;;;;;;;4893597;29;20097;-68
2021/08/28 14:52:11;;;;;;;1.05;0.80;;;;;;;;;;4892764;29;20059;-64
2021/08/28 14:54:37;;;;;;;2.00;0.85;;;;;;;;;;4890743;29;20048;-68
2021/08/28 14:57:04;;;;;;;0.95;0.70;;;;;;;;;;4893469;29;20476;-65
2021/08/28 14:59:31;;;;;;;1.55;0.60;;;;;;;;;;4893349;29;20135;-65
2021/08/28 15:01:58;;;;;;;3.88;0.60;;;;;;;;;;4893392;29;20116;-66
2021/08/28 15:04:25;;;;;;;1.33;0.65;;;;;;;;;;4891462;29;20419;-66
2021/08/28 15:06:51;;;;;;;0.80;0.60;;;;;;;;;;4891435;29;20119;-65
2021/08/28 15:09:18;;;;;;;1.02;0.63;;;;;;;;;;4918754;23;20519;-65
2021/08/28 15:11:45;;;;;;;1.25;0.80;;;;;;;;;;4894252;29;20056;-66
2021/08/28 15:14:11;;;;;;;0.80;0.80;;;;;;;;;;4893565;29;20104;-65
2021/08/28 15:16:38;;;;;;;2.53;1.55;;;;;;;;;;4894007;29;20484;-65
2021/08/28 15:19:04;;;;;;;2.35;1.83;;;;;;;;;;4894585;29;20078;-65
2021/08/28 15:21:31;;;;;;;3.22;2.45;;;;;;;;;;4894732;29;20374;-66
2021/08/28 15:24:00;;;;;;;2.08;1.92;;;;;;;;;;4895173;29;20048;-65
2021/08/28 15:26:27;;;;;;;4.25;2.25;;;;;;;;;;4892332;29;20405;-65
2021/08/28 15:28:54;;;;;;;2.40;2.20;;;;;;;;;;4894873;29;20053;-64
2021/08/28 15:31:21;;;;;;;2.83;2.13;;;;;;;;;;4894164;29;20048;-66
2021/08/28 15:33:48;;;;;;;2.78;2.30;;;;;;;;;;4894826;29;20052;-65
2021/08/28 15:36:15;;;;;;;2.28;1.88;;;;;;;;;;4890952;29;20056;-65
2021/08/28 15:38:41;;;;;;;2.28;2.08;;;;;;;;;;4894921;29;20049;-66
2021/08/28 15:41:08;;;;;;;2.35;2.13;;;;;;;;;;4895235;29;20658;-65
2021/08/28 15:43:36;;;;;;;2.78;2.50;;;;;;;;;;4894626;29;20060;-65
2021/08/28 15:46:06;;;;;;;2.47;2.05;;;;;;;;;;4895151;29;20064;-65
2021/08/28 15:48:36;;;;;;;2.78;2.08;;;;;;;;;;4895006;29;20052;-65
2021/08/28 15:51:02;;;;;;;2.40;2.20;;;;;;;;;;4891289;29;20056;-64
2021/08/28 15:53:29;;;;;;;2.90;2.13;;;;;;;;;;4894282;29;20161;-64
2021/08/28 15:55:56;;;;;;;2.28;2.08;;;;;;;;;;4876859;29;20048;-64
2021/08/28 15:58:24;;;;;;;3.50;2.30;;;;;;;;;;4897993;29;20072;-66
2021/08/28 16:00:51;;;;;;;2.50;2.30;;;;;;;;;;4897639;29;20063;-65
2021/08/28 16:03:18;;;;;;;3.05;2.03;;;;;;;;;;4898485;29;20148;-64
2021/08/28 16:05:45;;;;;;;2.85;2.65;;;;;;;;;;4881106;29;20063;-65
2021/08/28 16:08:12;;;;;;;2.95;2.65;;;;;;;;;;4863147;29;20061;-64
2021/08/28 16:10:41;;;;;;;2.70;2.35;;;;;;;;;;4896625;29;20048;-66
2021/08/28 16:13:12;;;;;;;2.85;1.92;;;;;;;;;;4879930;29;20080;-67
2021/08/28 16:15:40;;;;;;;2.05;1.85;;;;;;;;;;4895365;29;20052;-65
2021/08/28 16:18:06;;;;;;;3.38;2.45;;;;;;;;;;4894449;29;20084;-67
2021/08/28 16:20:33;;;;;;;2.95;1.90;;;;;;;;;;4872267;29;20140;-65
2021/08/28 16:23:01;;;;;;;2.08;1.90;;;;;;;;;;4897778;29;20576;-67
2021/08/28 16:25:29;;;;;;;1.85;1.75;;;;;;;;;;4893719;29;20067;-67
2021/08/28 16:27:55;;;;;;;2.10;1.90;;;;;;;;;;4897852;29;20056;-66
2021/08/28 16:30:23;;;;;;;2.67;2.17;;;;;;;;;;4897768;29;20055;-64
2021/08/28 16:32:50;;;;;;;2.50;2.30;;;;;;;;;;4894884;29;20481;-65
2021/08/28 16:35:17;;;;;;;3.42;2.60;;;;;;;;;;4893810;29;20059;-65
2021/08/28 16:37:44;;;;;;;4.57;2.72;;;;;;;;;;4895515;29;20131;-65
2021/08/28 16:40:11;;;;;;;2.63;2.10;;;;;;;;;;4890842;29;20390;-64
2021/08/28 16:42:38;;;;;;;4.97;2.80;;;;;;;;;;4893705;29;20057;-66
2021/08/28 16:45:05;;;;;;;2.80;2.60;;;;;;;;;;4895418;29;20057;-66
2021/08/28 16:47:35;;;;;;;2.88;2.67;;;;;;;;;;4895098;29;20108;-66
2021/08/28 16:50:03;;;;;;;2.67;2.47;;;;;;;;;;4879512;29;20049;-66
2021/08/28 16:52:31;;;;;;;2.58;2.35;;;;;;;;;;4892175;29;20052;-67
2021/08/28 16:54:58;;;;;;;3.35;2.72;;;;;;;;;;4895502;29;20504;-66
2021/08/28 16:57:24;;;;;;;2.42;2.13;;;;;;;;;;4894515;29;20385;-68
2021/08/28 16:59:52;;;;;;;2.60;2.35;;;;;;;;;;4895053;29;20044;-66
2021/08/28 17:02:22;;;;;;;4.57;2.60;;;;;;;;;;4894416;29;20052;-67
2021/08/28 17:04:51;;;;;;;4.03;2.35;;;;;;;;;;4894769;29;20057;-68
2021/08/28 17:07:18;;;;;;;3.42;2.50;;;;;;;;;;4888089;29;20514;-67
2021/08/28 17:09:45;;;;;;;2.50;2.30;;;;;;;;;;4895010;29;20053;-68
2021/08/28 17:12:12;;;;;;;2.60;2.40;;;;;;;;;;4896316;29;20115;-67
2021/08/28 17:14:39;;;;;;;2.70;2.50;;;;;;;;;;4894279;29;20108;-68
2021/08/28 17:17:06;;;;;;;2.70;2.50;;;;;;;;;;4895036;29;20064;-66
2021/08/28 17:19:33;;;;;;;4.38;2.92;;;;;;;;;;4895138;29;20535;-65
2021/08/28 17:22:00;;;;;;;4.05;2.97;;;;;;;;;;4894362;29;20053;-66
2021/08/28 17:24:27;;;;;;;3.00;2.70;;;;;;;;;;4893882;29;20060;-64
2021/08/28 17:26:53;;;;;;;4.75;3.30;;;;;;;;;;4894955;29;20500;-65
2021/08/28 17:29:21;;;;;;;4.15;2.53;;;;;;;;;;4894694;29;20052;-65
2021/08/28 17:31:48;;;;;;;3.25;2.50;;;;;;;;;;4894850;29;20268;-64
2021/08/28 17:34:16;;;;;;;3.08;2.60;;;;;;;;;;4894311;29;20131;-64
2021/08/28 17:36:47;;;;;;;2.67;2.10;;;;;;;;;;4893474;29;20056;-65
2021/08/28 17:39:14;;;;;;;3.38;2.80;;;;;;;;;;4875646;29;20117;-64
2021/08/28 17:41:41;;;;;;;3.30;2.28;;;;;;;;;;4894419;29;20056;-66
2021/08/28 17:44:07;;;;;;;3.55;2.40;;;;;;;;;;4894685;29;20472;-66
2021/08/28 17:46:35;;;;;;;4.05;2.83;;;;;;;;;;4894189;29;20053;-66
2021/08/28 17:49:02;;;;;;;3.20;2.90;;;;;;;;;;4892636;29;20571;-65
2021/08/28 17:51:29;;;;;;;3.05;2.75;;;;;;;;;;4893614;29;20591;-66
2021/08/28 17:53:56;;;;;;;4.43;2.88;;;;;;;;;;4890637;29;20056;-66
2021/08/28 17:56:22;;;;;;;3.35;2.88;;;;;;;;;;4892768;29;20115;-65
2021/08/28 17:58:49;;;;;;;4.25;3.15;;;;;;;;;;4893568;29;20512;-64
2021/08/28 18:01:17;;;;;;;6.22;3.53;;;;;;;;;;4892838;29;20056;-65
2021/08/28 18:03:45;;;;;;;4.43;3.25;;;;;;;;;;4891974;29;20060;-65
2021/08/28 18:06:12;;;;;;;2.92;2.72;;;;;;;;;;4893855;29;20107;-65
2021/08/28 18:08:38;;;;;;;2.83;2.63;;;;;;;;;;4893549;29;20052;-64
2021/08/28 18:11:05;;;;;;;3.40;3.10;;;;;;;;;;4891946;29;20606;-64
2021/08/28 18:13:33;;;;;;;3.30;3.00;;;;;;;;;;4890746;29;20132;-65
2021/08/28 18:16:01;;;;;;;4.20;3.10;;;;;;;;;;4893635;29;20432;-65
2021/08/28 18:18:27;;;;;;;3.30;2.97;;;;;;;;;;4892568;29;20056;-66
2021/08/28 18:20:54;;;;;;;3.50;3.20;;;;;;;;;;4893621;29;20052;-66
2021/08/28 18:23:21;;;;;;;3.72;3.42;;;;;;;;;;4893569;29;20073;-66
2021/08/28 18:25:48;;;;;;;4.38;3.50;;;;;;;;;;4888526;29;20497;-64
2021/08/28 18:28:14;;;;;;;3.10;2.50;;;;;;;;;;4890807;29;20048;-64
2021/08/28 18:30:41;;;;;;;3.80;3.05;;;;;;;;;;4889766;29;20045;-64
2021/08/28 18:33:07;;;;;;;4.25;3.70;;;;;;;;;;4893245;29;20108;-63
2021/08/28 18:35:34;;;;;;;4.72;4.30;;;;;;;;;;4890089;29;20117;-65
2021/08/28 18:38:01;;;;;;;4.07;3.50;;;;;;;;;;4892312;29;20115;-65
2021/08/28 18:40:28;;;;;;;5.63;4.22;;;;;;;;;;4892663;29;20056;-65
2021/08/28 18:42:56;;;;;;;4.07;3.10;;;;;;;;;;4892868;29;20465;-65
2021/08/28 18:45:23;;;;;;;4.32;3.85;;;;;;;;;;4892889;29;20104;-65
2021/08/28 18:47:51;;;;;;;4.00;3.15;;;;;;;;;;4891550;29;20048;-65
2021/08/28 18:50:19;;;;;;;5.82;3.83;;;;;;;;;;4892289;29;20414;-65
2021/08/28 18:52:46;;;;;;;4.93;3.50;;;;;;;;;;4893422;29;20464;-65
2021/08/28 18:55:12;;;;;;;3.67;3.38;;;;;;;;;;4892884;29;20052;-65
2021/08/28 18:57:40;;;;;;;4.97;3.78;;;;;;;;;;4893192;29;20578;-64
2021/08/28 19:00:07;;;;;;;3.35;3.05;;;;;;;;;;4890809;29;20096;-64
2021/08/28 19:02:35;;;;;;;3.28;2.97;;;;;;;;;;4892904;29;20124;-65
2021/08/28 19:05:02;;;;;;;3.63;3.20;;;;;;;;;;4892638;29;20076;-65
2021/08/28 19:07:29;;;;;;;4.18;3.78;;;;;;;;;;4888741;29;20757;-66
2021/08/28 19:09:55;;;;;;;3.28;2.97;;;;;;;;;;4890601;29;20047;-65
2021/08/28 19:12:22;;;;;;;5.30;3.55;;;;;;;;;;4892756;29;20598;-65
2021/08/28 19:14:49;;;;;;;4.95;3.50;;;;;;;;;;4894932;29;20116;-64
2021/08/28 19:17:15;;;;;;;5.50;3.97;;;;;;;;;;4894954;29;20049;-65
2021/08/28 19:19:42;;;;;;;3.40;3.10;;;;;;;;;;4894950;29;20096;-64
2021/08/28 19:22:08;;;;;;;3.65;3.22;;;;;;;;;;4894539;29;20057;-65
2021/08/28 19:24:35;;;;;;;4.50;3.85;;;;;;;;;;4894507;29;20087;-66
2021/08/28 19:27:02;;;;;;;4.40;3.22;;;;;;;;;;4894100;29;20576;-65
2021/08/28 19:29:29;;;;;;;3.45;3.15;;;;;;;;;;4893191;29;20147;-65
2021/08/28 19:32:01;;;;;;;4.55;3.50;;;;;;;;;;4898446;29;20052;-66
2021/08/28 19:34:28;;;;;;;4.80;3.75;;;;;;;;;;4899997;29;20464;-65
2021/08/28 19:36:55;;;;;;;5.68;3.97;;;;;;;;;;4897187;29;20289;-64
2021/08/28 19:39:23;;;;;;;5.38;3.88;;;;;;;;;;4882311;29;20056;-65
2021/08/28 19:41:49;;;;;;;5.55;4.00;;;;;;;;;;4897838;29;20052;-65
2021/08/28 19:44:16;;;;;;;4.65;4.00;;;;;;;;;;4918524;29;20471;-64
2021/08/28 19:46:43;;;;;;;4.80;4.00;;;;;;;;;;4904051;29;20464;-63
2021/08/28 19:49:09;;;;;;;5.47;4.00;;;;;;;;;;4899610;29;20056;-63
2021/08/28 19:51:40;;;;;;;5.00;3.88;;;;;;;;;;4899529;29;20096;-64
2021/08/28 19:54:07;;;;;;;5.13;4.00;;;;;;;;;;4899481;29;20116;-63
2021/08/28 19:56:34;;;;;;;5.07;3.90;;;;;;;;;;4899683;29;20084;-63
2021/08/28 19:59:01;;;;;;;9.80;4.78;;;;;;;;;;4893699;29;20053;-63
2021/08/28 20:01:27;;;;;;;6.93;5.25;;;;;;;;;;4900558;29;20100;-63
2021/08/28 20:03:54;;;;;;;3.88;3.47;;;;;;;;;;4894494;29;20151;-66
2021/08/28 20:06:21;;;;;;;4.40;3.47;;;;;;;;;;4899029;29;20123;-63
2021/08/28 20:08:47;;;;;;;5.45;3.63;;;;;;;;;;4918166;29;20059;-63
2021/08/28 20:11:14;;;;;;;4.65;3.33;;;;;;;;;;4902386;29;20445;-65
2021/08/28 20:13:41;;;;;;;5.93;3.85;;;;;;;;;;4913700;29;20052;-63
2021/08/28 20:16:07;;;;;;;4.50;4.10;;;;;;;;;;4916025;29;20052;-63
2021/08/28 20:18:36;;;;;;;3.97;3.58;;;;;;;;;;4898968;29;20104;-63
2021/08/28 20:21:03;;;;;;;4.78;3.47;;;;;;;;;;4879264;29;20479;-63
2021/08/28 20:23:30;;;;;;;4.10;3.58;;;;;;;;;;4880101;29;20053;-63
2021/08/28 20:25:56;;;;;;;3.83;3.30;;;;;;;;;;4881662;29;20049;-65
2021/08/28 20:28:23;;;;;;;5.28;3.72;;;;;;;;;;4882198;29;20053;-64
2021/08/28 20:30:50;;;;;;;4.10;3.67;;;;;;;;;;4881571;29;20049;-64
2021/08/28 20:33:17;;;;;;;3.40;3.10;;;;;;;;;;4882094;29;20053;-64
2021/08/28 20:35:43;;;;;;;3.85;3.45;;;;;;;;;;4898833;29;20048;-64
2021/08/28 20:38:10;;;;;;;4.20;3.80;;;;;;;;;;4898628;29;20057;-63
2021/08/28 20:40:37;;;;;;;3.88;3.47;;;;;;;;;;4898382;29;20045;-63
2021/08/28 20:43:03;;;;;;;4.78;3.63;;;;;;;;;;4898056;29;20056;-65
2021/08/28 20:45:30;;;;;;;5.28;3.15;;;;;;;;;;4880032;29;20117;-64
2021/08/28 20:47:57;;;;;;;3.38;3.05;;;;;;;;;;4884718;29;20049;-63
2021/08/28 20:50:23;;;;;;;3.55;3.25;;;;;;;;;;4917211;29;20510;-64
2021/08/28 20:52:50;;;;;;;3.95;3.22;;;;;;;;;;4917358;29;20052;-64
2021/08/28 20:55:17;;;;;;;5.15;3.65;;;;;;;;;;4898775;29;20057;-64
2021/08/28 20:57:44;;;;;;;3.85;3.45;;;;;;;;;;4898381;29;20104;-66
2021/08/28 21:00:11;;;;;;;6.78;4.07;;;;;;;;;;4898722;29;20109;-64
2021/08/28 21:02:38;;;;;;;4.53;3.60;;;;;;;;;;4898360;29;20087;-65
2021/08/28 21:05:05;;;;;;;4.40;3.33;;;;;;;;;;4882597;29;20057;-64
2021/08/28 21:07:32;;;;;;;4.25;3.85;;;;;;;;;;4879770;29;20060;-65
2021/08/28 21:09:58;;;;;;;4.95;3.65;;;;;;;;;;4929285;23;20055;-66
2021/08/28 21:12:25;;;;;;;4.20;3.80;;;;;;;;;;4917177;29;20076;-66
2021/08/28 21:14:52;;;;;;;4.03;3.55;;;;;;;;;;4917179;29;20051;-66
2021/08/28 21:17:18;;;;;;;4.35;3.83;;;;;;;;;;4917072;29;20056;-66
2021/08/28 21:19:46;;;;;;;4.55;3.92;;;;;;;;;;4904395;29;20049;-65
2021/08/28 21:22:13;;;;;;;5.55;4.78;;;;;;;;;;4898040;29;20048;-66
2021/08/28 21:24:41;;;;;;;5.53;4.10;;;;;;;;;;4897802;29;20112;-66
2021/08/28 21:27:08;;;;;;;5.68;5.10;;;;;;;;;;4897063;29;20056;-65
2021/08/28 21:29:34;;;;;;;4.90;4.40;;;;;;;;;;4898107;29;20052;-66
2021/08/28 21:32:01;;;;;;;6.65;4.78;;;;;;;;;;4897521;29;20060;-65
2021/08/28 21:34:28;;;;;;;6.68;4.28;;;;;;;;;;4887718;29;20060;-64
2021/08/28 21:36:54;;;;;;;4.43;3.60;;;;;;;;;;4879254;29;20501;-64
2021/08/28 21:39:21;;;;;;;4.57;3.60;;;;;;;;;;4879287;29;20061;-65
2021/08/28 21:41:48;;;;;;;4.00;3.50;;;;;;;;;;4879051;29;20081;-65
2021/08/28 21:44:14;;;;;;;5.38;4.00;;;;;;;;;;4887144;29;20469;-65
2021/08/28 21:46:41;;;;;;;5.13;4.20;;;;;;;;;;4897237;29;20048;-66
2021/08/28 21:49:08;;;;;;;5.45;3.78;;;;;;;;;;4881161;29;20472;-65
2021/08/28 21:51:38;;;;;;;4.22;3.67;;;;;;;;;;4898055;29;20053;-66
2021/08/28 21:54:05;;;;;;;4.43;3.60;;;;;;;;;;4889757;29;20053;-65
2021/08/28 21:56:31;;;;;;;4.05;3.45;;;;;;;;;;4879019;29;20053;-67
2021/08/28 21:58:58;;;;;;;4.38;3.85;;;;;;;;;;4878774;29;20114;-65
2021/08/28 22:01:25;;;;;;;5.80;4.43;;;;;;;;;;4877798;29;20096;-66
2021/08/28 22:03:52;;;;;;;7.43;4.45;;;;;;;;;;4896377;29;20103;-65
2021/08/28 22:06:18;;;;;;;4.95;4.40;;;;;;;;;;4897578;29;20048;-65
2021/08/28 22:08:45;;;;;;;4.28;3.88;;;;;;;;;;4897324;29;20087;-65
2021/08/28 22:11:12;;;;;;;5.45;4.40;;;;;;;;;;4880747;29;20112;-64
2021/08/28 22:13:38;;;;;;;4.93;4.07;;;;;;;;;;4880816;29;20105;-64
2021/08/28 22:16:05;;;;;;;4.28;3.88;;;;;;;;;;4878722;29;20496;-64
2021/08/28 22:18:34;;;;;;;5.15;4.60;;;;;;;;;;4878457;29;20112;-65
2021/08/28 22:21:01;;;;;;;4.53;3.80;;;;;;;;;;4878540;29;20057;-65
2021/08/28 22:23:28;;;;;;;7.10;4.30;;;;;;;;;;4892281;29;20057;-65
2021/08/28 22:25:55;;;;;;;7.57;4.82;;;;;;;;;;4895929;29;20068;-65
2021/08/28 22:28:25;;;;;;;9.20;6.22;;;;;;;;;;4895913;29;20052;-66
2021/08/28 22:30:51;;;;;;;7.72;6.07;;;;;;;;;;4897035;29;20096;-66
2021/08/28 22:33:18;;;;;;;7.47;5.65;;;;;;;;;;4883971;29;20049;-65
2021/08/28 22:35:45;;;;;;;6.60;5.00;;;;;;;;;;4878469;29;20109;-65
2021/08/28 22:38:12;;;;;;;7.78;5.07;;;;;;;;;;4878408;29;20461;-65
2021/08/28 22:40:38;;;;;;;7.03;5.05;;;;;;;;;;4878400;29;20049;-66
2021/08/28 22:43:05;;;;;;;7.25;4.85;;;;;;;;;;4888826;29;20052;-65
2021/08/28 22:45:32;;;;;;;7.63;4.85;;;;;;;;;;4896785;29;20526;-65
2021/08/28 22:47:59;;;;;;;7.72;5.43;;;;;;;;;;4897042;29;20049;-65
2021/08/28 22:50:26;;;;;;;6.22;4.95;;;;;;;;;;4895521;29;20052;-65
2021/08/28 22:52:53;;;;;;;5.78;4.85;;;;;;;;;;4887181;29;20057;-66
2021/08/28 22:55:19;;;;;;;8.02;4.90;;;;;;;;;;4877928;29;20096;-65
2021/08/28 22:57:47;;;;;;;6.57;5.03;;;;;;;;;;4878152;29;20057;-65
2021/08/28 23:00:14;;;;;;;6.55;4.97;;;;;;;;;;4876801;29;20052;-65
2021/08/28 23:02:41;;;;;;;6.28;4.78;;;;;;;;;;4885058;29;20107;-65
2021/08/28 23:05:08;;;;;;;6.05;4.40;;;;;;;;;;4896546;29;20060;-66
2021/08/28 23:07:35;;;;;;;6.10;4.72;;;;;;;;;;4896649;29;20056;-64
2021/08/28 23:10:07;;;;;;;5.22;4.28;;;;;;;;;;4896595;29;20105;-64
2021/08/28 23:12:35;;;;;;;5.55;4.35;;;;;;;;;;4888666;29;20489;-66
2021/08/28 23:15:03;;;;;;;6.53;4.97;;;;;;;;;;4878102;29;20049;-66
2021/08/28 23:17:30;;;;;;;4.97;4.20;;;;;;;;;;4876674;29;20105;-65
2021/08/28 23:19:56;;;;;;;5.68;4.28;;;;;;;;;;4877904;29;20053;-66
2021/08/28 23:22:24;;;;;;;5.20;3.75;;;;;;;;;;4877592;29;20048;-65
2021/08/28 23:24:51;;;;;;;5.32;4.82;;;;;;;;;;4883706;29;20108;-64
2021/08/28 23:27:18;;;;;;;7.30;4.97;;;;;;;;;;4896287;29;20198;-65
2021/08/28 23:29:44;;;;;;;6.13;4.10;;;;;;;;;;4896639;29;20131;-64
2021/08/28 23:32:11;;;;;;;9.43;4.00;;;;;;;;;;4896185;29;20052;-67
2021/08/28 23:34:38;;;;;;;5.40;4.30;;;;;;;;;;4896499;29;20057;-65
2021/08/28 23:37:04;;;;;;;5.43;4.68;;;;;;;;;;4886345;29;20457;-64
2021/08/28 23:39:31;;;;;;;4.78;4.38;;;;;;;;;;4877676;29;20121;-64
2021/08/28 23:41:57;;;;;;;6.18;4.57;;;;;;;;;;4877556;29;20105;-66
2021/08/28 23:44:24;;;;;;;6.88;5.40;;;;;;;;;;4876410;29;20105;-65
2021/08/28 23:46:51;;;;;;;5.55;4.47;;;;;;;;;;4876661;29;20057;-64
2021/08/28 23:49:18;;;;;;;6.63;4.65;;;;;;;;;;4877427;29;20057;-65
2021/08/28 23:51:44;;;;;;;5.25;4.35;;;;;;;;;;4877585;29;20465;-65
2021/08/28 23:54:11;;;;;;;5.55;4.38;;;;;;;;;;4877481;29;20577;-65
2021/08/28 23:56:38;;;;;;;7.63;4.22;;;;;;;;;;4877786;29;20056;-66
2021/08/28 23:59:04;;;;;;;6.38;4.15;;;;;;;;;;4877569;29;20105;-65
